Time;durP1;ratioP1;P1;durP2;ratioP2;P2;SDS_P1;SDS_P2;PMS_P1;PMS_P2;Temp;Humidity;BMP_temperature;BMP_pressure;BME280_temperature;BME280_humidity;BME280_pressure;Samples;Min_cycle;Max_cycle;Signal;HPM_P1;HPM_P2
2021/11/13 00:01:50;;;;;;;53.15;35.50;;;22.60;99.10;;;;;;4188948;28;20056;-73
2021/11/13 00:03:55;;;;;;;53.60;35.55;;;22.70;98.80;;;;;;4180015;28;20443;-73
2021/11/13 00:06:00;;;;;;;56.00;37.70;;;22.90;98.40;;;;;;4194009;28;20041;-73
2021/11/13 00:08:05;;;;;;;51.08;36.00;;;22.90;98.10;;;;;;4206565;28;20135;-73
2021/11/13 00:10:11;;;;;;;53.55;36.63;;;22.90;98.30;;;;;;4196108;28;20457;-72
2021/11/13 00:12:17;;;;;;;57.60;38.92;;;22.80;98.00;;;;;;4174453;28;20068;-73
2021/11/13 00:14:22;;;;;;;43.10;28.80;;;22.70;98.60;;;;;;4199502;28;20051;-73
2021/11/13 00:16:26;;;;;;;41.72;28.35;;;22.70;98.50;;;;;;4201708;28;20063;-72
2021/11/13 00:18:35;;;;;;;32.72;21.83;;;22.60;98.60;;;;;;4198413;28;20258;-72
2021/11/13 00:20:39;;;;;;;27.13;20.67;;;22.60;98.10;;;;;;4199651;28;20139;-71
2021/11/13 00:22:43;;;;;;;27.38;19.70;;;22.70;98.40;;;;;;4171111;28;20041;-71
2021/11/13 00:24:48;;;;;;;25.52;19.42;;;22.80;98.20;;;;;;4196343;28;20056;-72
2021/11/13 00:26:52;;;;;;;23.80;18.42;;;23.00;98.10;;;;;;4201810;28;20094;-72
2021/11/13 00:28:57;;;;;;;29.23;18.73;;;23.00;98.00;;;;;;4183578;28;20048;-73
2021/11/13 00:31:01;;;;;;;25.13;18.13;;;23.00;97.90;;;;;;4174562;28;20623;-71
2021/11/13 00:33:06;;;;;;;26.17;16.95;;;22.80;98.00;;;;;;4190666;28;20094;-72
2021/11/13 00:35:11;;;;;;;23.15;17.35;;;22.70;98.20;;;;;;4198829;28;20166;-72
2021/11/13 00:37:15;;;;;;;21.75;17.80;;;22.80;97.90;;;;;;4198933;28;20048;-71
2021/11/13 00:39:20;;;;;;;21.77;16.80;;;22.80;97.80;;;;;;4180976;28;20052;-73
2021/11/13 00:41:24;;;;;;;30.55;18.48;;;23.00;97.80;;;;;;4195320;28;20044;-73
2021/11/13 00:43:29;;;;;;;23.80;17.73;;;22.90;97.70;;;;;;4191659;28;20075;-73
2021/11/13 00:45:34;;;;;;;26.05;18.52;;;22.90;97.60;;;;;;4198037;28;20513;-71
2021/11/13 00:47:38;;;;;;;24.25;17.17;;;23.00;97.60;;;;;;4180512;28;21195;-71
2021/11/13 00:49:43;;;;;;;23.10;16.52;;;23.00;97.50;;;;;;4200425;28;20525;-72
2021/11/13 00:51:47;;;;;;;25.65;17.38;;;23.10;97.30;;;;;;4187398;28;21347;-72
2021/11/13 00:53:52;;;;;;;27.90;16.35;;;23.20;96.80;;;;;;4194356;28;20583;-71
2021/11/13 00:55:57;;;;;;;23.42;15.77;;;23.30;96.90;;;;;;4184758;28;20048;-72
2021/11/13 00:58:01;;;;;;;24.52;16.50;;;23.40;96.50;;;;;;4197958;28;20147;-71
2021/11/13 01:00:06;;;;;;;21.52;15.95;;;23.30;96.70;;;;;;4200928;28;20041;-71
2021/11/13 01:02:11;;;;;;;23.83;16.55;;;23.40;96.50;;;;;;4186461;28;20068;-71
2021/11/13 01:04:17;;;;;;;26.02;16.50;;;23.40;96.50;;;;;;4193625;28;20040;-71
2021/11/13 01:06:21;;;;;;;22.20;15.57;;;23.40;96.20;;;;;;4196578;28;20147;-71
2021/11/13 01:08:26;;;;;;;21.27;15.45;;;23.40;96.20;;;;;;4198131;28;20060;-72
2021/11/13 01:10:30;;;;;;;21.70;15.23;;;23.60;95.90;;;;;;4201821;28;20047;-71
2021/11/13 01:12:35;;;;;;;26.73;16.30;;;23.50;95.80;;;;;;4192227;28;20280;-71
2021/11/13 01:14:40;;;;;;;20.80;15.40;;;23.30;96.60;;;;;;4185919;28;20056;-71
2021/11/13 01:16:45;;;;;;;19.88;15.32;;;23.20;96.40;;;;;;4199614;28;20436;-71
2021/11/13 01:18:49;;;;;;;22.83;15.18;;;23.30;96.40;;;;;;4200526;28;20076;-71
2021/11/13 01:20:56;;;;;;;21.38;15.00;;;23.40;96.10;;;;;;4189750;28;20190;-71
2021/11/13 01:23:06;;;;;;;17.70;14.13;;;23.50;95.50;;;;;;4175870;28;20040;-71
2021/11/13 01:25:11;;;;;;;21.60;14.38;;;23.40;95.40;;;;;;4200917;28;20166;-71
2021/11/13 01:27:16;;;;;;;18.48;14.40;;;23.40;95.50;;;;;;4201058;28;20083;-72
2021/11/13 01:29:20;;;;;;;18.23;13.82;;;23.40;95.60;;;;;;4198259;28;20506;-71
2021/11/13 01:31:25;;;;;;;17.67;13.50;;;23.50;95.60;;;;;;4197898;28;20561;-72
2021/11/13 01:33:30;;;;;;;19.65;12.98;;;23.60;95.10;;;;;;4194847;28;20533;-73
2021/11/13 01:35:34;;;;;;;26.58;14.00;;;23.80;94.70;;;;;;4197059;28;20129;-72
2021/11/13 01:37:39;;;;;;;21.38;13.73;;;23.80;94.80;;;;;;4201579;28;20051;-73
2021/11/13 01:39:43;;;;;;;20.15;13.63;;;23.70;95.00;;;;;;4202940;28;20055;-73
2021/11/13 01:41:48;;;;;;;21.05;13.45;;;23.60;95.10;;;;;;4189612;28;20044;-72
2021/11/13 01:43:53;;;;;;;18.85;13.23;;;23.70;95.60;;;;;;4194327;28;20118;-71
2021/11/13 01:45:57;;;;;;;15.75;12.57;;;23.80;94.90;;;;;;4199627;28;20452;-71
2021/11/13 01:48:02;;;;;;;17.80;12.90;;;23.90;94.60;;;;;;4202590;28;20047;-70
2021/11/13 01:50:31;;;;;;;19.85;12.60;;;23.90;94.70;;;;;;4199790;28;20037;-70
2021/11/13 01:52:36;;;;;;;16.33;12.38;;;24.00;94.40;;;;;;4172878;28;20087;-70
2021/11/13 01:54:41;;;;;;;16.48;12.25;;;24.20;94.30;;;;;;4200390;28;20056;-70
2021/11/13 01:56:49;;;;;;;16.85;12.32;;;24.30;93.90;;;;;;4182313;28;20084;-71
2021/11/13 01:58:55;;;;;;;16.55;12.45;;;24.10;93.50;;;;;;4200662;28;20040;-70
2021/11/13 02:01:00;;;;;;;16.75;13.32;;;24.10;93.80;;;;;;4180898;28;21395;-70
2021/11/13 02:03:06;;;;;;;15.90;12.73;;;24.10;93.90;;;;;;4196576;28;20051;-72
2021/11/13 02:05:10;;;;;;;16.25;12.27;;;24.30;93.50;;;;;;4165353;28;20578;-71
2021/11/13 02:07:14;;;;;;;15.00;12.25;;;24.30;93.00;;;;;;4200535;28;20040;-72
2021/11/13 02:09:18;;;;;;;16.75;12.10;;;24.40;93.20;;;;;;4196687;28;20043;-72
2021/11/13 02:11:24;;;;;;;23.08;12.05;;;24.40;92.70;;;;;;4160710;28;20792;-73
2021/11/13 02:13:34;;;;;;;18.05;11.60;;;24.40;93.20;;;;;;4196558;28;20130;-74
2021/11/13 02:15:38;;;;;;;13.98;10.82;;;24.50;92.80;;;;;;4184836;28;20082;-72
2021/11/13 02:17:43;;;;;;;15.77;12.32;;;24.50;92.40;;;;;;4203007;28;20048;-72
2021/11/13 02:19:51;;;;;;;16.38;11.50;;;24.60;92.40;;;;;;4197401;28;20041;-71
2021/11/13 02:21:55;;;;;;;13.63;11.30;;;24.70;92.30;;;;;;4192617;28;20045;-73
2021/11/13 02:23:59;;;;;;;15.65;11.30;;;24.80;92.10;;;;;;4176346;28;20048;-72
2021/11/13 02:26:04;;;;;;;17.33;11.18;;;24.80;92.00;;;;;;4194922;28;20486;-71
2021/11/13 02:28:10;;;;;;;17.77;11.45;;;24.80;91.70;;;;;;4194824;28;20099;-71
2021/11/13 02:30:15;;;;;;;13.80;11.32;;;24.60;92.00;;;;;;4199558;28;20200;-72
2021/11/13 02:32:19;;;;;;;15.30;11.85;;;24.70;91.90;;;;;;4185651;28;20104;-71
2021/11/13 02:34:25;;;;;;;15.48;10.90;;;24.90;91.30;;;;;;4183660;28;20094;-73
2021/11/13 02:36:29;;;;;;;13.43;10.65;;;25.00;91.00;;;;;;4198377;28;20048;-72
2021/11/13 02:38:36;;;;;;;14.88;10.80;;;25.10;90.30;;;;;;4178047;28;20427;-72
2021/11/13 02:40:42;;;;;;;13.02;10.35;;;25.10;90.60;;;;;;4194345;28;20036;-71
2021/11/13 02:42:47;;;;;;;15.48;10.98;;;25.00;89.90;;;;;;4191229;28;20048;-72
2021/11/13 02:44:51;;;;;;;14.82;10.40;;;24.80;90.60;;;;;;4194146;28;20043;-72
2021/11/13 02:46:56;;;;;;;16.08;10.90;;;24.80;90.60;;;;;;4194358;28;20046;-72
2021/11/13 02:49:02;;;;;;;14.57;10.70;;;24.90;90.60;;;;;;4197659;28;20109;-71
2021/11/13 02:51:08;;;;;;;15.93;10.73;;;25.00;90.60;;;;;;4173787;28;20040;-71
2021/11/13 02:53:16;;;;;;;16.38;10.35;;;25.10;90.20;;;;;;4188334;28;20044;-71
2021/11/13 02:55:21;;;;;;;14.65;10.75;;;25.00;90.30;;;;;;4196309;28;20050;-71
2021/11/13 02:57:25;;;;;;;15.40;11.10;;;25.10;90.00;;;;;;4192231;28;20131;-72
2021/11/13 02:59:29;;;;;;;19.08;10.63;;;25.10;90.10;;;;;;4194070;28;20052;-71
2021/11/13 03:01:34;;;;;;;14.40;10.95;;;25.10;90.20;;;;;;4194469;28;20058;-72
2021/11/13 03:03:41;;;;;;;16.08;11.98;;;25.10;89.50;;;;;;4187636;28;20059;-71
2021/11/13 03:05:54;;;;;;;14.95;11.85;;;25.10;89.90;;;;;;4170913;28;20059;-71
2021/11/13 03:08:02;;;;;;;15.70;11.80;;;25.20;90.00;;;;;;4175984;28;20060;-72
2021/11/13 03:10:07;;;;;;;19.02;12.23;;;25.10;89.10;;;;;;4191724;28;20043;-73
2021/11/13 03:12:12;;;;;;;18.38;12.60;;;25.10;89.60;;;;;;4162134;28;20053;-72
2021/11/13 03:14:17;;;;;;;17.75;12.57;;;25.20;89.30;;;;;;4187562;28;20052;-72
2021/11/13 03:16:22;;;;;;;18.08;11.55;;;25.20;89.20;;;;;;4182938;28;20460;-72
2021/11/13 03:18:26;;;;;;;18.88;12.75;;;25.30;89.40;;;;;;4179802;28;20045;-73
2021/11/13 03:20:31;;;;;;;20.00;13.23;;;25.40;89.60;;;;;;4177518;28;20064;-72
2021/11/13 03:22:37;;;;;;;17.77;12.80;;;25.30;89.90;;;;;;4184088;28;20052;-70
2021/11/13 03:24:42;;;;;;;18.35;12.32;;;25.40;89.90;;;;;;4167060;28;20053;-71
2021/11/13 03:26:47;;;;;;;16.80;13.25;;;25.40;89.90;;;;;;4194241;28;20647;-71
2021/11/13 03:28:57;;;;;;;21.45;12.77;;;25.50;89.90;;;;;;4193106;28;20048;-72
2021/11/13 03:31:02;;;;;;;23.02;12.43;;;25.50;89.90;;;;;;4177128;28;20572;-72
2021/11/13 03:33:07;;;;;;;21.60;12.65;;;25.50;89.50;;;;;;4176848;28;20097;-72
2021/11/13 03:35:17;;;;;;;17.30;13.00;;;25.60;89.00;;;;;;4184535;28;20068;-71
2021/11/13 03:37:21;;;;;;;17.75;12.57;;;25.60;89.00;;;;;;4202328;28;20067;-70
2021/11/13 03:39:26;;;;;;;17.88;12.75;;;25.70;88.90;;;;;;4198881;28;20049;-71
2021/11/13 03:41:31;;;;;;;23.23;12.82;;;25.70;88.30;;;;;;4188924;28;20475;-73
2021/11/13 03:43:36;;;;;;;20.33;13.07;;;25.80;88.20;;;;;;4195081;28;20170;-71
2021/11/13 03:45:41;;;;;;;21.15;12.95;;;25.90;87.50;;;;;;4205920;28;20155;-73
2021/11/13 03:47:45;;;;;;;18.77;12.60;;;26.00;87.20;;;;;;4200143;28;20055;-73
2021/11/13 03:49:50;;;;;;;18.35;13.05;;;26.00;87.20;;;;;;4209833;28;20459;-74
2021/11/13 03:51:55;;;;;;;24.50;14.88;;;26.10;87.70;;;;;;4193528;28;20085;-74
2021/11/13 03:53:59;;;;;;;23.75;13.63;;;26.20;87.30;;;;;;4198510;28;20059;-73
2021/11/13 03:56:04;;;;;;;17.55;12.73;;;26.20;87.60;;;;;;4199610;28;20072;-74
2021/11/13 03:58:08;;;;;;;16.95;12.43;;;26.40;87.10;;;;;;4206177;28;20531;-74
2021/11/13 04:00:13;;;;;;;16.30;12.18;;;26.40;85.40;;;;;;4189066;28;20136;-73
2021/11/13 04:02:18;;;;;;;16.02;11.80;;;26.40;85.30;;;;;;4189484;28;20131;-74
2021/11/13 04:04:22;;;;;;;16.25;12.35;;;26.40;85.70;;;;;;4181598;28;20098;-72
2021/11/13 04:06:27;;;;;;;15.80;12.48;;;26.40;85.90;;;;;;4201979;28;20094;-72
2021/11/13 04:08:31;;;;;;;16.23;11.95;;;26.40;85.70;;;;;;4184840;28;20124;-73
2021/11/13 04:10:37;;;;;;;17.52;12.27;;;26.60;85.60;;;;;;4197751;28;20075;-74
2021/11/13 04:12:42;;;;;;;20.60;12.70;;;26.50;86.10;;;;;;4172039;28;20078;-74
2021/11/13 04:14:46;;;;;;;18.45;13.02;;;26.50;86.20;;;;;;4202764;28;20053;-73
2021/11/13 04:16:51;;;;;;;17.65;12.25;;;26.60;86.10;;;;;;4187652;28;20707;-72
2021/11/13 04:18:56;;;;;;;25.20;12.95;;;26.60;86.30;;;;;;4203429;28;20047;-73
2021/11/13 04:21:01;;;;;;;19.25;12.35;;;26.70;86.80;;;;;;4180374;28;20736;-73
2021/11/13 04:23:05;;;;;;;19.70;12.70;;;26.80;86.60;;;;;;4195274;28;20079;-73
2021/11/13 04:25:10;;;;;;;17.88;13.27;;;26.80;86.20;;;;;;4203259;28;20059;-75
2021/11/13 04:27:18;;;;;;;17.05;13.00;;;26.90;86.10;;;;;;4201007;28;20044;-75
2021/11/13 04:29:22;;;;;;;18.35;12.73;;;26.90;86.20;;;;;;4206347;28;20091;-74
2021/11/13 04:31:27;;;;;;;14.80;12.77;;;27.00;85.80;;;;;;4195863;28;20032;-75
2021/11/13 04:33:33;;;;;;;14.88;11.73;;;27.10;85.60;;;;;;4188144;28;20051;-77
2021/11/13 04:37:57;;;;;;;15.30;12.10;;;27.20;86.40;;;;;;4200596;28;20059;-73
2021/11/13 04:40:01;;;;;;;19.27;11.77;;;27.30;85.30;;;;;;4196907;28;20131;-73
2021/11/13 04:42:06;;;;;;;16.27;11.98;;;27.30;85.00;;;;;;4194717;28;20053;-75
2021/11/13 04:44:11;;;;;;;15.30;11.52;;;27.30;85.30;;;;;;4200308;28;20053;-74
2021/11/13 04:46:15;;;;;;;18.85;11.45;;;27.30;85.00;;;;;;4199978;28;20105;-75
2021/11/13 04:48:20;;;;;;;15.15;11.63;;;27.40;84.50;;;;;;4202049;28;20036;-74
2021/11/13 04:50:25;;;;;;;20.00;12.25;;;27.40;84.70;;;;;;4206625;28;20117;-76
2021/11/13 04:52:29;;;;;;;19.50;12.52;;;27.40;84.30;;;;;;4196734;28;20123;-74
2021/11/13 04:54:34;;;;;;;15.48;12.35;;;27.40;84.60;;;;;;4207579;28;20131;-75
2021/11/13 04:56:38;;;;;;;17.05;12.35;;;27.40;84.40;;;;;;4201405;28;20143;-74
2021/11/13 04:58:43;;;;;;;16.48;11.98;;;27.50;85.00;;;;;;4197718;28;20056;-75
2021/11/13 05:00:47;;;;;;;15.70;12.10;;;27.50;83.90;;;;;;4201776;28;20103;-74
2021/11/13 05:02:52;;;;;;;17.27;11.77;;;27.50;84.10;;;;;;4200253;28;20530;-75
2021/11/13 05:04:57;;;;;;;17.45;12.20;;;27.50;83.30;;;;;;4206926;28;20068;-77
2021/11/13 05:07:02;;;;;;;14.95;11.07;;;27.50;83.80;;;;;;4188062;28;20040;-75
2021/11/13 05:09:06;;;;;;;15.80;11.25;;;27.50;82.30;;;;;;4207814;28;20040;-77
2021/11/13 05:11:11;;;;;;;21.15;11.57;;;27.50;84.00;;;;;;4203683;28;20093;-75
2021/11/13 05:13:17;;;;;;;15.18;11.25;;;27.60;83.50;;;;;;4197957;28;20044;-76
2021/11/13 05:15:21;;;;;;;13.43;10.85;;;27.70;83.10;;;;;;4203895;28;20542;-75
2021/11/13 05:17:26;;;;;;;15.05;11.50;;;27.80;82.70;;;;;;4205740;28;20044;-75
2021/11/13 05:19:31;;;;;;;17.67;12.27;;;28.00;82.60;;;;;;4206135;28;20059;-74
2021/11/13 05:21:36;;;;;;;13.77;11.20;;;28.10;82.60;;;;;;4199582;28;20059;-75
2021/11/13 05:23:42;;;;;;;16.63;11.35;;;28.20;82.10;;;;;;4197918;28;20052;-75
2021/11/13 05:25:47;;;;;;;16.55;10.90;;;28.30;80.00;;;;;;4207254;28;20067;-74
2021/11/13 05:27:51;;;;;;;15.45;11.15;;;28.20;80.40;;;;;;4204314;28;20139;-74
2021/11/13 05:29:56;;;;;;;14.15;10.98;;;28.20;80.70;;;;;;4203129;28;20479;-75
2021/11/13 05:32:00;;;;;;;14.95;10.98;;;28.10;80.90;;;;;;4190911;28;20460;-74
2021/11/13 05:34:06;;;;;;;17.10;11.73;;;28.10;80.80;;;;;;4202276;28;20044;-74
2021/11/13 05:36:10;;;;;;;15.10;10.65;;;28.00;81.10;;;;;;4203138;28;20044;-74
2021/11/13 05:38:15;;;;;;;17.45;11.35;;;28.00;81.60;;;;;;4184784;28;20574;-76
2021/11/13 05:40:19;;;;;;;15.75;11.10;;;28.00;81.10;;;;;;4199233;28;20414;-75
2021/11/13 05:42:26;;;;;;;18.17;11.35;;;28.10;81.00;;;;;;4198350;28;20047;-75
2021/11/13 05:44:31;;;;;;;14.82;11.07;;;28.30;80.90;;;;;;4188077;28;20637;-75
2021/11/13 05:46:35;;;;;;;15.27;11.95;;;28.30;81.10;;;;;;4204285;28;20268;-73
2021/11/13 05:48:39;;;;;;;13.65;11.23;;;28.40;80.20;;;;;;4207679;28;20048;-74
2021/11/13 05:50:44;;;;;;;15.85;10.77;;;28.40;80.20;;;;;;4202149;28;20055;-76
2021/11/13 05:52:49;;;;;;;13.85;10.20;;;28.40;79.30;;;;;;4181433;28;20407;-75
2021/11/13 05:54:54;;;;;;;13.32;10.85;;;28.40;80.20;;;;;;4203152;28;20075;-74
2021/11/13 05:56:58;;;;;;;30.58;20.40;;;28.40;80.80;;;;;;4203915;28;20044;-74
2021/11/13 05:59:23;;;;;;;34.00;21.77;;;28.40;79.70;;;;;;4206311;28;20058;-75
2021/11/13 06:01:27;;;;;;;25.30;18.50;;;28.40;79.50;;;;;;4203556;28;20145;-76
2021/11/13 06:03:32;;;;;;;30.02;18.38;;;28.40;79.60;;;;;;4174543;28;20049;-75
2021/11/13 06:05:36;;;;;;;29.42;18.00;;;28.40;79.80;;;;;;4172766;28;20052;-74
2021/11/13 06:07:40;;;;;;;26.15;18.10;;;28.40;79.30;;;;;;4167269;28;20044;-75
2021/11/13 06:09:45;;;;;;;26.50;16.50;;;28.50;79.90;;;;;;4168585;28;20049;-74
2021/11/13 06:11:49;;;;;;;42.42;23.02;;;28.50;79.20;;;;;;4159130;28;20148;-74
2021/11/13 06:13:53;;;;;;;40.70;20.40;;;28.50;79.20;;;;;;4167161;28;20037;-74
2021/11/13 06:15:58;;;;;;;32.10;18.10;;;28.60;79.00;;;;;;4174143;28;20056;-76
2021/11/13 06:18:02;;;;;;;24.38;16.90;;;28.60;79.60;;;;;;4166521;28;20144;-76
2021/11/13 06:20:08;;;;;;;26.73;16.38;;;28.60;78.90;;;;;;4172934;28;20654;-76
2021/11/13 06:22:12;;;;;;;29.27;17.60;;;28.50;78.60;;;;;;4163912;28;20045;-76
2021/11/13 06:24:17;;;;;;;22.45;13.52;;;28.40;78.70;;;;;;4166551;28;20039;-76
2021/11/13 06:26:22;;;;;;;20.10;12.77;;;28.40;79.30;;;;;;4172169;28;20071;-74
2021/11/13 06:28:26;;;;;;;26.35;16.92;;;28.40;79.50;;;;;;4169722;28;20077;-75
2021/11/13 06:30:31;;;;;;;23.85;14.85;;;28.40;80.00;;;;;;4171647;28;20435;-77
2021/11/13 06:32:36;;;;;;;24.75;14.13;;;28.40;80.00;;;;;;4165521;28;20037;-76
2021/11/13 06:34:40;;;;;;;25.88;14.68;;;28.50;80.30;;;;;;4167830;28;20571;-75
2021/11/13 06:36:45;;;;;;;21.60;13.55;;;28.50;80.00;;;;;;4166966;28;20140;-76
2021/11/13 06:38:49;;;;;;;19.42;12.63;;;28.50;79.80;;;;;;4170098;28;20052;-76
2021/11/13 06:40:54;;;;;;;17.48;12.25;;;28.60;79.80;;;;;;4172463;28;20526;-75
2021/11/13 06:42:58;;;;;;;25.63;15.25;;;28.60;80.10;;;;;;4168176;28;20132;-77
2021/11/13 06:45:08;;;;;;;18.50;12.48;;;28.60;79.90;;;;;;4169733;28;20519;-75
2021/11/13 06:47:14;;;;;;;17.60;12.20;;;28.60;79.60;;;;;;4169315;28;20041;-77
2021/11/13 06:49:18;;;;;;;24.23;14.60;;;28.60;80.10;;;;;;4172978;28;20045;-77
2021/11/13 06:51:27;;;;;;;19.23;14.13;;;28.60;80.40;;;;;;4168164;28;20508;-76
2021/11/13 06:53:32;;;;;;;21.67;13.77;;;28.60;80.80;;;;;;4170244;28;20045;-76
2021/11/13 06:55:39;;;;;;;19.65;13.10;;;28.60;81.20;;;;;;4171408;28;20041;-76
2021/11/13 06:57:43;;;;;;;18.85;12.45;;;28.60;81.40;;;;;;4170899;28;20423;-76
2021/11/13 06:59:48;;;;;;;21.05;12.43;;;28.60;81.20;;;;;;4173397;28;20049;-76
2021/11/13 07:01:54;;;;;;;16.13;11.82;;;28.60;81.50;;;;;;4162798;28;20075;-76
2021/11/13 07:03:59;;;;;;;20.38;11.75;;;28.70;81.10;;;;;;4186234;28;20473;-77
2021/11/13 07:06:05;;;;;;;16.70;11.40;;;28.70;81.10;;;;;;4188755;28;20136;-77
2021/11/13 07:08:09;;;;;;;17.10;12.15;;;28.80;81.00;;;;;;4184469;28;20048;-77
2021/11/13 07:10:15;;;;;;;15.48;11.88;;;28.80;80.90;;;;;;4192923;28;20067;-77
2021/11/13 07:12:19;;;;;;;17.27;12.23;;;28.80;80.80;;;;;;4186489;28;20052;-76
2021/11/13 07:14:24;;;;;;;14.77;11.55;;;28.80;80.80;;;;;;4192353;28;20099;-76
2021/11/13 07:16:28;;;;;;;17.42;12.40;;;28.90;80.80;;;;;;4186749;28;20080;-76
2021/11/13 07:18:33;;;;;;;16.05;11.15;;;28.90;80.80;;;;;;4187692;28;20415;-76
2021/11/13 07:20:37;;;;;;;16.58;11.77;;;29.00;80.90;;;;;;4189321;28;20070;-79
2021/11/13 07:22:42;;;;;;;17.77;11.75;;;29.00;80.90;;;;;;4188776;28;20045;-77
2021/11/13 07:24:46;;;;;;;16.77;11.60;;;29.00;80.60;;;;;;4191091;28;20037;-76
2021/11/13 07:26:54;;;;;;;16.90;12.15;;;29.00;80.50;;;;;;4190693;28;20041;-75
2021/11/13 07:29:04;;;;;;;17.73;12.13;;;29.00;81.40;;;;;;4205633;28;20569;-75
2021/11/13 07:31:10;;;;;;;17.27;12.00;;;29.00;81.00;;;;;;4185273;28;20045;-75
2021/11/13 07:33:14;;;;;;;16.98;11.85;;;29.00;81.00;;;;;;4187945;28;20040;-75
2021/11/13 07:35:19;;;;;;;21.63;12.10;;;29.10;80.80;;;;;;4190381;28;20408;-76
2021/11/13 07:37:25;;;;;;;19.33;12.90;;;29.00;80.10;;;;;;4190729;28;20040;-76
2021/11/13 07:39:29;;;;;;;18.52;13.35;;;29.10;79.80;;;;;;4185853;28;20048;-76
2021/11/13 07:41:34;;;;;;;19.00;12.40;;;29.00;79.90;;;;;;4193757;28;20048;-76
2021/11/13 07:43:39;;;;;;;17.95;12.10;;;29.00;79.90;;;;;;4184572;28;20057;-78
2021/11/13 07:45:44;;;;;;;16.48;12.15;;;29.00;80.00;;;;;;4190720;28;20080;-75
2021/11/13 07:47:48;;;;;;;15.52;11.85;;;29.10;80.20;;;;;;4192269;28;20074;-75
2021/11/13 07:49:53;;;;;;;18.77;12.02;;;29.00;79.70;;;;;;4185737;28;20516;-76
2021/11/13 07:51:58;;;;;;;19.23;11.75;;;29.10;79.80;;;;;;4181560;28;20040;-76
2021/11/13 07:54:02;;;;;;;17.23;11.50;;;29.10;79.80;;;;;;4182076;28;20114;-77
2021/11/13 07:56:07;;;;;;;17.55;12.23;;;29.10;79.80;;;;;;4193642;28;20387;-78
2021/11/13 07:58:16;;;;;;;15.48;11.57;;;29.10;79.30;;;;;;4189898;28;20049;-75
2021/11/13 08:00:21;;;;;;;16.05;11.25;;;29.10;79.00;;;;;;4187087;28;20094;-76
2021/11/13 08:02:25;;;;;;;20.17;12.00;;;29.00;79.20;;;;;;4182251;28;20040;-76
2021/11/13 08:04:30;;;;;;;15.07;12.00;;;29.00;79.20;;;;;;4200605;28;20549;-76
2021/11/13 08:06:35;;;;;;;20.23;12.15;;;29.00;79.70;;;;;;4204801;28;20033;-76
2021/11/13 08:08:39;;;;;;;20.10;12.25;;;29.00;80.30;;;;;;4200486;28;20087;-76
2021/11/13 08:10:46;;;;;;;15.75;11.90;;;29.10;79.50;;;;;;4204297;28;20456;-76
2021/11/13 08:12:51;;;;;;;16.52;11.20;;;29.10;79.80;;;;;;4195876;28;20089;-76
2021/11/13 08:14:55;;;;;;;14.80;11.07;;;29.10;79.80;;;;;;4204561;28;20048;-77
2021/11/13 08:17:00;;;;;;;21.02;11.27;;;29.10;79.80;;;;;;4202694;28;20040;-77
2021/11/13 08:19:04;;;;;;;13.48;11.23;;;29.10;79.40;;;;;;4199880;28;20784;-76
2021/11/13 08:21:08;;;;;;;18.92;12.85;;;29.20;80.20;;;;;;4193913;28;20157;-79
2021/11/13 08:23:13;;;;;;;21.95;12.90;;;29.10;79.50;;;;;;4182721;28;20036;-79
2021/11/13 08:25:18;;;;;;;20.48;12.68;;;29.10;79.70;;;;;;4204950;28;20406;-77
2021/11/13 08:27:23;;;;;;;16.27;12.45;;;29.00;79.70;;;;;;4188351;28;20044;-76
2021/11/13 08:29:27;;;;;;;24.75;11.75;;;29.10;79.80;;;;;;4189796;28;20048;-76
2021/11/13 08:31:31;;;;;;;17.77;12.88;;;29.10;79.80;;;;;;4194949;28;20491;-74
2021/11/13 08:33:36;;;;;;;23.80;15.93;;;29.10;79.70;;;;;;4196910;28;20048;-75
2021/11/13 08:35:41;;;;;;;18.70;12.98;;;29.10;79.50;;;;;;4197134;28;20083;-75
2021/11/13 08:37:45;;;;;;;29.45;13.40;;;29.10;79.50;;;;;;4160976;28;20753;-75
2021/11/13 08:39:49;;;;;;;19.40;14.38;;;29.10;79.10;;;;;;4176931;28;20412;-75
2021/11/13 08:41:53;;;;;;;18.20;13.73;;;29.10;79.30;;;;;;4190603;28;20482;-74
2021/11/13 08:43:58;;;;;;;17.52;12.82;;;29.10;79.40;;;;;;4194282;28;20382;-75
2021/11/13 08:46:02;;;;;;;15.15;12.23;;;29.10;79.50;;;;;;4195220;28;20310;-75
2021/11/13 08:48:07;;;;;;;18.10;11.52;;;29.10;79.40;;;;;;4197636;28;20055;-76
2021/11/13 08:50:23;;;;;;;16.38;12.43;;;29.00;79.20;;;;;;4201738;28;20047;-76
2021/11/13 08:52:27;;;;;;;19.23;11.48;;;29.00;79.50;;;;;;4170466;28;20466;-74
2021/11/13 08:54:33;;;;;;;16.05;10.93;;;29.00;79.70;;;;;;4179646;28;20486;-75
2021/11/13 08:56:37;;;;;;;15.82;11.43;;;29.10;79.80;;;;;;4192931;28;20117;-76
2021/11/13 08:58:44;;;;;;;18.33;11.60;;;29.10;79.80;;;;;;4193895;28;20072;-75
2021/11/13 09:00:56;;;;;;;20.15;11.75;;;29.20;79.80;;;;;;4193944;28;20106;-75
2021/11/13 09:03:02;;;;;;;25.20;11.30;;;29.10;79.70;;;;;;4173756;28;20522;-75
2021/11/13 09:05:08;;;;;;;15.88;10.85;;;29.10;79.80;;;;;;4194872;28;20047;-77
2021/11/13 09:07:13;;;;;;;17.95;11.63;;;29.10;79.80;;;;;;4192613;28;20127;-75
2021/11/13 09:09:25;;;;;;;22.40;13.23;;;29.00;79.50;;;;;;4198033;28;20532;-75
2021/11/13 09:11:32;;;;;;;19.00;13.20;;;29.00;79.40;;;;;;4187078;28;20044;-74
2021/11/13 09:13:37;;;;;;;20.75;13.00;;;29.00;79.70;;;;;;4190576;28;20074;-74
2021/11/13 09:15:42;;;;;;;15.38;12.05;;;29.00;79.40;;;;;;4198021;28;20040;-76
2021/11/13 09:17:46;;;;;;;20.45;11.52;;;29.00;79.60;;;;;;4200103;28;20399;-75
2021/11/13 09:19:53;;;;;;;17.17;11.35;;;28.90;79.40;;;;;;4199268;28;20056;-76
2021/11/13 09:21:58;;;;;;;18.75;11.65;;;28.90;79.40;;;;;;4195077;28;20071;-76
2021/11/13 09:24:04;;;;;;;22.15;12.48;;;28.90;80.20;;;;;;4198093;28;20541;-76
2021/11/13 09:26:11;;;;;;;17.92;12.43;;;28.90;80.40;;;;;;4196068;28;20048;-76
2021/11/13 09:28:16;;;;;;;17.70;12.20;;;28.90;80.60;;;;;;4179126;28;20037;-75
2021/11/13 09:30:28;;;;;;;20.15;11.20;;;28.90;80.80;;;;;;4196670;28;20040;-77
2021/11/13 09:32:32;;;;;;;14.15;11.20;;;28.80;79.90;;;;;;4196387;28;20060;-77
2021/11/13 09:34:44;;;;;;;21.02;11.25;;;28.80;80.20;;;;;;4200604;28;20051;-75
2021/11/13 09:36:49;;;;;;;17.42;12.52;;;28.80;80.10;;;;;;4195137;28;20076;-76
2021/11/13 09:38:57;;;;;;;23.98;12.75;;;28.80;80.30;;;;;;4196758;28;20044;-77
2021/11/13 09:41:03;;;;;;;13.77;11.18;;;28.70;80.30;;;;;;4190473;28;20242;-77
2021/11/13 09:43:08;;;;;;;16.50;11.27;;;28.70;80.50;;;;;;4190657;28;20399;-76
2021/11/13 09:45:13;;;;;;;19.70;11.63;;;28.60;80.20;;;;;;4197856;28;20525;-77
2021/11/13 09:47:17;;;;;;;20.63;12.63;;;28.60;80.50;;;;;;4176609;28;20162;-77
2021/11/13 09:49:22;;;;;;;17.98;12.35;;;28.60;80.60;;;;;;4198410;28;20062;-77
2021/11/13 09:51:27;;;;;;;25.95;13.50;;;28.60;80.70;;;;;;4187543;28;20128;-75
2021/11/13 09:53:31;;;;;;;24.25;12.75;;;28.60;80.90;;;;;;4193878;28;20080;-77
2021/11/13 09:55:39;;;;;;;21.05;15.40;;;28.60;81.80;;;;;;4199583;28;20563;-76
2021/11/13 09:57:43;;;;;;;23.77;16.75;;;28.60;81.20;;;;;;4195915;28;20458;-76
2021/11/13 09:59:47;;;;;;;24.25;17.95;;;28.60;81.20;;;;;;4195995;28;20052;-74
2021/11/13 10:01:52;;;;;;;29.20;18.23;;;28.60;81.20;;;;;;4190903;28;20121;-75
2021/11/13 10:03:56;;;;;;;25.42;18.70;;;28.60;81.50;;;;;;4177169;28;20568;-77
2021/11/13 10:06:03;;;;;;;28.92;16.55;;;28.60;81.70;;;;;;4193594;28;20048;-77
2021/11/13 10:08:08;;;;;;;30.33;20.67;;;28.50;81.80;;;;;;4195932;28;20054;-78
2021/11/13 10:10:37;;;;;;;38.15;27.63;;;28.40;82.30;;;;;;4182054;28;20048;-78
2021/11/13 10:12:43;;;;;;;36.80;27.92;;;28.40;82.20;;;;;;4190336;28;20064;-77
2021/11/13 10:14:52;;;;;;;36.58;24.88;;;28.50;82.50;;;;;;4197689;28;20040;-77
2021/11/13 10:16:57;;;;;;;29.90;23.75;;;28.40;83.10;;;;;;4193449;28;20468;-77
2021/11/13 10:19:07;;;;;;;30.98;21.63;;;28.40;83.30;;;;;;4196250;28;20050;-77
2021/11/13 10:21:31;;;;;;;28.13;19.58;;;28.30;83.80;;;;;;4191485;28;20380;-77
2021/11/13 10:23:42;;;;;;;33.05;18.65;;;28.30;84.40;;;;;;4193372;28;20142;-77
2021/11/13 10:26:13;;;;;;;22.73;16.20;;;28.20;84.40;;;;;;4196932;28;20056;-77
2021/11/13 10:28:18;;;;;;;23.23;16.45;;;28.20;84.20;;;;;;4195256;28;20051;-78
2021/11/13 10:30:23;;;;;;;21.80;15.98;;;28.20;84.20;;;;;;4200547;28;20048;-77
2021/11/13 10:32:28;;;;;;;25.10;15.20;;;28.20;84.20;;;;;;4186827;28;20167;-75
2021/11/13 10:34:36;;;;;;;23.30;14.70;;;28.20;84.20;;;;;;4197303;28;20377;-77
2021/11/13 10:36:43;;;;;;;26.08;15.63;;;28.20;84.30;;;;;;4193863;28;20080;-77
2021/11/13 10:38:49;;;;;;;29.10;15.63;;;28.20;84.80;;;;;;4192382;28;20068;-77
2021/11/13 10:40:55;;;;;;;29.13;16.65;;;28.30;85.10;;;;;;4172960;28;20052;-76